sensor_id;sensor_type;location;lat;lon;timestamp;P1;durP1;ratioP1;P2;durP2;ratioP2
41466;SDS011;72625;53.700;19.958;2023-11-21T00:02:43;3.60;;;3.30;;
41466;SDS011;72625;53.700;19.958;2023-11-21T00:07:47;3.80;;;3.50;;
41466;SDS011;72625;53.700;19.958;2023-11-21T00:12:53;5.50;;;3.70;;
41466;SDS011;72625;53.700;19.958;2023-11-21T00:23:31;3.70;;;3.40;;
41466;SDS011;72625;53.700;19.958;2023-11-21T00:28:33;3.10;;;2.90;;
41466;SDS011;72625;53.700;19.958;2023-11-21T00:33:36;3.70;;;3.40;;
41466;SDS011;72625;53.700;19.958;2023-11-21T00:38:47;3.30;;;3.00;;
41466;SDS011;72625;53.700;19.958;2023-11-21T00:43:50;3.10;;;2.90;;
41466;SDS011;72625;53.700;19.958;2023-11-21T00:48:55;3.10;;;2.90;;
41466;SDS011;72625;53.700;19.958;2023-11-21T00:54:01;3.90;;;3.60;;
41466;SDS011;72625;53.700;19.958;2023-11-21T00:59:25;3.30;;;3.00;;
41466;SDS011;72625;53.700;19.958;2023-11-21T01:04:30;3.20;;;3.00;;
41466;SDS011;72625;53.700;19.958;2023-11-21T01:09:34;3.60;;;3.30;;
41466;SDS011;72625;53.700;19.958;2023-11-21T01:14:36;2.70;;;2.50;;
41466;SDS011;72625;53.700;19.958;2023-11-21T01:19:38;3.10;;;2.90;;
41466;SDS011;72625;53.700;19.958;2023-11-21T01:24:49;3.20;;;3.00;;
41466;SDS011;72625;53.700;19.958;2023-11-21T01:29:52;3.20;;;3.00;;
41466;SDS011;72625;53.700;19.958;2023-11-21T01:34:55;2.60;;;2.50;;
41466;SDS011;72625;53.700;19.958;2023-11-21T01:39:58;3.00;;;2.90;;
41466;SDS011;72625;53.700;19.958;2023-11-21T01:45:01;3.40;;;3.10;;
41466;SDS011;72625;53.700;19.958;2023-11-21T01:50:14;3.40;;;3.20;;
41466;SDS011;72625;53.700;19.958;2023-11-21T01:55:19;3.30;;;3.10;;
41466;SDS011;72625;53.700;19.958;2023-11-21T02:00:30;3.20;;;3.00;;
41466;SDS011;72625;53.700;19.958;2023-11-21T02:06:02;2.60;;;2.50;;
41466;SDS011;72625;53.700;19.958;2023-11-21T02:11:07;3.10;;;2.90;;
41466;SDS011;72625;53.700;19.958;2023-11-21T02:16:12;2.70;;;2.60;;
41466;SDS011;72625;53.700;19.958;2023-11-21T02:21:17;2.60;;;2.50;;
41466;SDS011;72625;53.700;19.958;2023-11-21T02:26:21;4.80;;;3.30;;
41466;SDS011;72625;53.700;19.958;2023-11-21T02:31:32;2.80;;;2.60;;
41466;SDS011;72625;53.700;19.958;2023-11-21T02:36:39;3.40;;;3.20;;
41466;SDS011;72625;53.700;19.958;2023-11-21T02:41:42;3.30;;;3.10;;
41466;SDS011;72625;53.700;19.958;2023-11-21T02:46:56;3.20;;;3.00;;
41466;SDS011;72625;53.700;19.958;2023-11-21T02:57:35;3.20;;;3.00;;
41466;SDS011;72625;53.700;19.958;2023-11-21T03:02:37;2.80;;;2.60;;
41466;SDS011;72625;53.700;19.958;2023-11-21T03:07:41;2.70;;;2.50;;
41466;SDS011;72625;53.700;19.958;2023-11-21T03:12:44;3.00;;;2.80;;
41466;SDS011;72625;53.700;19.958;2023-11-21T03:17:46;3.30;;;3.10;;
41466;SDS011;72625;53.700;19.958;2023-11-21T03:27:53;3.20;;;3.00;;
41466;SDS011;72625;53.700;19.958;2023-11-21T03:32:56;3.10;;;2.90;;
41466;SDS011;72625;53.700;19.958;2023-11-21T03:38:01;3.50;;;3.20;;
41466;SDS011;72625;53.700;19.958;2023-11-21T03:43:03;2.80;;;2.60;;
41466;SDS011;72625;53.700;19.958;2023-11-21T03:48:06;3.00;;;2.80;;
41466;SDS011;72625;53.700;19.958;2023-11-21T03:53:09;2.60;;;2.50;;
41466;SDS011;72625;53.700;19.958;2023-11-21T03:58:11;3.50;;;2.60;;
41466;SDS011;72625;53.700;19.958;2023-11-21T04:03:14;3.30;;;3.00;;
41466;SDS011;72625;53.700;19.958;2023-11-21T04:08:17;3.50;;;3.20;;
41466;SDS011;72625;53.700;19.958;2023-11-21T04:13:19;2.60;;;2.50;;
41466;SDS011;72625;53.700;19.958;2023-11-21T04:18:22;3.10;;;2.90;;
41466;SDS011;72625;53.700;19.958;2023-11-21T04:23:24;2.90;;;2.70;;
41466;SDS011;72625;53.700;19.958;2023-11-21T04:28:32;2.50;;;2.40;;
41466;SDS011;72625;53.700;19.958;2023-11-21T04:33:37;2.60;;;2.50;;
41466;SDS011;72625;53.700;19.958;2023-11-21T04:38:40;3.00;;;2.80;;
41466;SDS011;72625;53.700;19.958;2023-11-21T04:43:44;3.00;;;2.80;;
41466;SDS011;72625;53.700;19.958;2023-11-21T04:48:50;2.70;;;2.50;;
41466;SDS011;72625;53.700;19.958;2023-11-21T04:53:55;3.00;;;2.80;;
41466;SDS011;72625;53.700;19.958;2023-11-21T04:58:58;2.80;;;2.60;;
41466;SDS011;72625;53.700;19.958;2023-11-21T05:15:46;3.10;;;2.90;;
41466;SDS011;72625;53.700;19.958;2023-11-21T05:21:17;3.70;;;3.40;;
41466;SDS011;72625;53.700;19.958;2023-11-21T05:26:25;3.00;;;2.80;;
41466;SDS011;72625;53.700;19.958;2023-11-21T05:31:31;4.70;;;4.30;;
41466;SDS011;72625;53.700;19.958;2023-11-21T05:36:33;3.30;;;3.10;;
41466;SDS011;72625;53.700;19.958;2023-11-21T05:41:38;5.50;;;4.90;;
41466;SDS011;72625;53.700;19.958;2023-11-21T05:46:41;5.00;;;3.50;;
41466;SDS011;72625;53.700;19.958;2023-11-21T05:51:45;3.40;;;3.20;;
41466;SDS011;72625;53.700;19.958;2023-11-21T05:56:47;3.70;;;3.50;;
41466;SDS011;72625;53.700;19.958;2023-11-21T06:01:50;2.80;;;2.60;;
41466;SDS011;72625;53.700;19.958;2023-11-21T06:07:14;3.50;;;3.30;;
41466;SDS011;72625;53.700;19.958;2023-11-21T06:12:17;4.10;;;3.80;;
41466;SDS011;72625;53.700;19.958;2023-11-21T06:17:19;3.70;;;3.50;;
41466;SDS011;72625;53.700;19.958;2023-11-21T06:22:22;3.00;;;2.80;;
41466;SDS011;72625;53.700;19.958;2023-11-21T06:27:24;3.60;;;3.40;;
41466;SDS011;72625;53.700;19.958;2023-11-21T06:32:26;3.50;;;3.30;;
41466;SDS011;72625;53.700;19.958;2023-11-21T06:37:31;3.80;;;3.50;;
41466;SDS011;72625;53.700;19.958;2023-11-21T06:42:35;3.80;;;3.60;;
41466;SDS011;72625;53.700;19.958;2023-11-21T06:47:40;4.10;;;3.80;;
41466;SDS011;72625;53.700;19.958;2023-11-21T06:52:45;5.10;;;4.60;;
41466;SDS011;72625;53.700;19.958;2023-11-21T06:57:48;3.30;;;3.10;;
41466;SDS011;72625;53.700;19.958;2023-11-21T07:02:50;3.90;;;3.70;;
41466;SDS011;72625;53.700;19.958;2023-11-21T07:07:53;3.60;;;3.00;;
41466;SDS011;72625;53.700;19.958;2023-11-21T07:12:55;3.30;;;2.80;;
41466;SDS011;72625;53.700;19.958;2023-11-21T07:17:59;3.20;;;3.00;;
41466;SDS011;72625;53.700;19.958;2023-11-21T07:23:01;4.60;;;4.30;;
41466;SDS011;72625;53.700;19.958;2023-11-21T09:59:36;3.80;;;3.50;;
41466;SDS011;72625;53.700;19.958;2023-11-21T10:04:41;4.30;;;4.00;;
41466;SDS011;72625;53.700;19.958;2023-11-21T10:09:45;3.40;;;3.20;;
41466;SDS011;72625;53.700;19.958;2023-11-21T10:14:51;5.80;;;4.00;;
41466;SDS011;72625;53.700;19.958;2023-11-21T10:19:59;3.10;;;2.90;;
41466;SDS011;72625;53.700;19.958;2023-11-21T10:30:11;3.00;;;2.80;;
41466;SDS011;72625;53.700;19.958;2023-11-21T10:35:15;4.50;;;4.20;;
41466;SDS011;72625;53.700;19.958;2023-11-21T10:40:18;3.70;;;3.50;;
41466;SDS011;72625;53.700;19.958;2023-11-21T10:45:23;7.10;;;6.60;;
41466;SDS011;72625;53.700;19.958;2023-11-21T10:50:27;3.40;;;3.20;;
41466;SDS011;72625;53.700;19.958;2023-11-21T10:55:32;4.00;;;3.70;;
41466;SDS011;72625;53.700;19.958;2023-11-21T11:00:36;4.00;;;3.60;;
41466;SDS011;72625;53.700;19.958;2023-11-21T11:05:43;3.70;;;3.50;;
41466;SDS011;72625;53.700;19.958;2023-11-21T11:10:59;5.50;;;4.00;;
41466;SDS011;72625;53.700;19.958;2023-11-21T11:16:06;4.20;;;3.90;;
41466;SDS011;72625;53.700;19.958;2023-11-21T11:38:17;5.20;;;4.70;;
41466;SDS011;72625;53.700;19.958;2023-11-21T11:43:27;3.40;;;3.10;;
41466;SDS011;72625;53.700;19.958;2023-11-21T11:48:40;3.90;;;3.60;;
41466;SDS011;72625;53.700;19.958;2023-11-21T11:53:45;7.10;;;6.50;;
41466;SDS011;72625;53.700;19.958;2023-11-21T11:58:50;5.90;;;5.40;;
41466;SDS011;72625;53.700;19.958;2023-11-21T12:09:23;6.00;;;5.60;;
41466;SDS011;72625;53.700;19.958;2023-11-21T12:14:30;7.70;;;7.20;;
41466;SDS011;72625;53.700;19.958;2023-11-21T12:19:34;5.00;;;4.50;;
41466;SDS011;72625;53.700;19.958;2023-11-21T12:24:41;5.90;;;5.30;;
41466;SDS011;72625;53.700;19.958;2023-11-21T12:29:45;5.70;;;5.20;;
41466;SDS011;72625;53.700;19.958;2023-11-21T12:34:49;5.40;;;5.00;;
41466;SDS011;72625;53.700;19.958;2023-11-21T12:39:56;4.40;;;4.10;;
41466;SDS011;72625;53.700;19.958;2023-11-21T12:50:23;3.20;;;2.90;;
41466;SDS011;72625;53.700;19.958;2023-11-21T12:55:32;4.30;;;4.00;;
41466;SDS011;72625;53.700;19.958;2023-11-21T13:00:49;3.70;;;3.40;;
41466;SDS011;72625;53.700;19.958;2023-11-21T13:05:55;3.40;;;3.20;;
41466;SDS011;72625;53.700;19.958;2023-11-21T13:11:00;3.50;;;3.30;;
41466;SDS011;72625;53.700;19.958;2023-11-21T13:16:04;4.60;;;4.30;;
41466;SDS011;72625;53.700;19.958;2023-11-21T13:21:38;6.20;;;5.30;;
41466;SDS011;72625;53.700;19.958;2023-11-21T13:26:39;5.00;;;4.60;;
41466;SDS011;72625;53.700;19.958;2023-11-21T13:32:00;6.90;;;6.30;;
41466;SDS011;72625;53.700;19.958;2023-11-21T13:37:06;5.70;;;5.20;;
41466;SDS011;72625;53.700;19.958;2023-11-21T13:42:10;6.10;;;5.60;;
41466;SDS011;72625;53.700;19.958;2023-11-21T13:47:16;8.20;;;7.40;;
41466;SDS011;72625;53.700;19.958;2023-11-21T13:52:19;6.80;;;6.20;;
41466;SDS011;72625;53.700;19.958;2023-11-21T13:57:26;6.10;;;5.70;;
41466;SDS011;72625;53.700;19.958;2023-11-21T14:02:31;6.10;;;5.70;;
41466;SDS011;72625;53.700;19.958;2023-11-21T14:07:43;8.10;;;7.50;;
41466;SDS011;72625;53.700;19.958;2023-11-21T14:12:53;8.70;;;8.00;;
41466;SDS011;72625;53.700;19.958;2023-11-21T14:17:57;6.20;;;5.80;;
41466;SDS011;72625;53.700;19.958;2023-11-21T14:29:12;5.40;;;5.00;;
41466;SDS011;72625;53.700;19.958;2023-11-21T14:34:23;5.80;;;5.40;;
41466;SDS011;72625;53.700;19.958;2023-11-21T14:44:38;7.30;;;6.70;;
41466;SDS011;72625;53.700;19.958;2023-11-21T14:49:44;5.70;;;5.30;;
41466;SDS011;72625;53.700;19.958;2023-11-21T14:55:11;5.30;;;4.90;;
41466;SDS011;72625;53.700;19.958;2023-11-21T15:00:28;6.80;;;6.20;;
41466;SDS011;72625;53.700;19.958;2023-11-21T15:05:45;4.30;;;4.00;;
41466;SDS011;72625;53.700;19.958;2023-11-21T15:10:51;5.60;;;5.30;;
41466;SDS011;72625;53.700;19.958;2023-11-21T15:15:59;6.30;;;5.20;;
41466;SDS011;72625;53.700;19.958;2023-11-21T15:21:10;5.30;;;4.80;;
41466;SDS011;72625;53.700;19.958;2023-11-21T15:26:15;7.50;;;6.30;;
41466;SDS011;72625;53.700;19.958;2023-11-21T15:31:19;6.60;;;6.10;;
41466;SDS011;72625;53.700;19.958;2023-11-21T15:36:28;7.80;;;7.20;;
41466;SDS011;72625;53.700;19.958;2023-11-21T15:41:34;4.90;;;4.50;;
41466;SDS011;72625;53.700;19.958;2023-11-21T15:46:38;4.60;;;4.20;;
41466;SDS011;72625;53.700;19.958;2023-11-21T15:57:17;4.20;;;3.80;;
41466;SDS011;72625;53.700;19.958;2023-11-21T16:07:25;5.70;;;5.30;;
41466;SDS011;72625;53.700;19.958;2023-11-21T16:12:29;3.30;;;3.10;;
41466;SDS011;72625;53.700;19.958;2023-11-21T16:17:36;4.00;;;3.40;;
41466;SDS011;72625;53.700;19.958;2023-11-21T16:29:13;4.90;;;4.50;;
41466;SDS011;72625;53.700;19.958;2023-11-21T16:34:20;5.00;;;4.70;;
41466;SDS011;72625;53.700;19.958;2023-11-21T16:39:33;4.90;;;4.60;;
41466;SDS011;72625;53.700;19.958;2023-11-21T16:49:41;5.30;;;4.90;;
41466;SDS011;72625;53.700;19.958;2023-11-21T16:54:47;4.30;;;4.00;;
41466;SDS011;72625;53.700;19.958;2023-11-21T17:00:01;5.50;;;4.70;;
41466;SDS011;72625;53.700;19.958;2023-11-21T17:05:10;4.20;;;3.90;;
41466;SDS011;72625;53.700;19.958;2023-11-21T17:10:14;5.20;;;4.90;;
41466;SDS011;72625;53.700;19.958;2023-11-21T17:15:19;5.40;;;4.10;;
41466;SDS011;72625;53.700;19.958;2023-11-21T17:20:24;4.70;;;4.20;;
41466;SDS011;72625;53.700;19.958;2023-11-21T17:25:30;5.80;;;5.40;;
41466;SDS011;72625;53.700;19.958;2023-11-21T17:30:34;6.30;;;5.70;;
41466;SDS011;72625;53.700;19.958;2023-11-21T17:35:40;3.80;;;3.60;;
41466;SDS011;72625;53.700;19.958;2023-11-21T17:40:45;6.20;;;5.80;;
41466;SDS011;72625;53.700;19.958;2023-11-21T17:45:49;5.30;;;4.60;;
41466;SDS011;72625;53.700;19.958;2023-11-21T17:50:54;5.10;;;4.70;;
41466;SDS011;72625;53.700;19.958;2023-11-21T17:55:58;4.40;;;4.10;;
41466;SDS011;72625;53.700;19.958;2023-11-21T18:06:06;6.20;;;5.60;;
41466;SDS011;72625;53.700;19.958;2023-11-21T18:11:14;5.90;;;5.40;;
41466;SDS011;72625;53.700;19.958;2023-11-21T18:16:18;8.30;;;7.40;;
41466;SDS011;72625;53.700;19.958;2023-11-21T18:21:21;8.90;;;8.00;;
41466;SDS011;72625;53.700;19.958;2023-11-21T18:26:46;5.70;;;5.20;;
41466;SDS011;72625;53.700;19.958;2023-11-21T18:31:49;3.20;;;3.00;;
41466;SDS011;72625;53.700;19.958;2023-11-21T18:36:53;6.80;;;6.10;;
41466;SDS011;72625;53.700;19.958;2023-11-21T18:41:57;12.60;;;10.00;;
41466;SDS011;72625;53.700;19.958;2023-11-21T18:47:05;11.00;;;9.40;;
41466;SDS011;72625;53.700;19.958;2023-11-21T18:52:09;9.40;;;8.40;;
41466;SDS011;72625;53.700;19.958;2023-11-21T18:57:14;7.80;;;5.90;;
41466;SDS011;72625;53.700;19.958;2023-11-21T19:02:17;5.60;;;5.20;;
41466;SDS011;72625;53.700;19.958;2023-11-21T19:07:24;6.00;;;5.50;;
41466;SDS011;72625;53.700;19.958;2023-11-21T19:12:29;6.10;;;5.60;;
41466;SDS011;72625;53.700;19.958;2023-11-21T19:17:35;5.30;;;4.90;;
41466;SDS011;72625;53.700;19.958;2023-11-21T19:22:41;4.80;;;4.50;;
41466;SDS011;72625;53.700;19.958;2023-11-21T19:27:45;7.20;;;6.70;;
41466;SDS011;72625;53.700;19.958;2023-11-21T19:32:51;8.00;;;7.20;;
41466;SDS011;72625;53.700;19.958;2023-11-21T19:37:55;13.50;;;12.40;;
41466;SDS011;72625;53.700;19.958;2023-11-21T19:43:00;10.10;;;9.30;;
41466;SDS011;72625;53.700;19.958;2023-11-21T19:48:05;6.30;;;5.80;;
41466;SDS011;72625;53.700;19.958;2023-11-21T19:53:11;8.40;;;7.80;;
41466;SDS011;72625;53.700;19.958;2023-11-21T19:58:15;10.00;;;9.20;;
41466;SDS011;72625;53.700;19.958;2023-11-21T20:03:20;11.60;;;10.50;;
41466;SDS011;72625;53.700;19.958;2023-11-21T20:08:24;11.00;;;10.10;;
41466;SDS011;72625;53.700;19.958;2023-11-21T20:13:28;8.40;;;7.80;;
41466;SDS011;72625;53.700;19.958;2023-11-21T20:18:32;7.00;;;6.60;;
41466;SDS011;72625;53.700;19.958;2023-11-21T20:23:36;9.20;;;8.40;;
41466;SDS011;72625;53.700;19.958;2023-11-21T20:28:41;11.20;;;10.40;;
41466;SDS011;72625;53.700;19.958;2023-11-21T20:33:58;10.30;;;9.50;;
41466;SDS011;72625;53.700;19.958;2023-11-21T20:39:30;13.40;;;12.40;;
41466;SDS011;72625;53.700;19.958;2023-11-21T20:44:55;9.50;;;8.80;;
41466;SDS011;72625;53.700;19.958;2023-11-21T20:50:02;9.60;;;8.90;;
41466;SDS011;72625;53.700;19.958;2023-11-21T21:00:10;8.20;;;7.70;;
41466;SDS011;72625;53.700;19.958;2023-11-21T21:05:17;7.00;;;6.50;;
41466;SDS011;72625;53.700;19.958;2023-11-21T21:10:21;7.50;;;7.00;;
41466;SDS011;72625;53.700;19.958;2023-11-21T21:15:25;7.60;;;7.10;;
41466;SDS011;72625;53.700;19.958;2023-11-21T21:20:32;6.90;;;6.40;;
41466;SDS011;72625;53.700;19.958;2023-11-21T21:25:35;6.70;;;6.30;;
41466;SDS011;72625;53.700;19.958;2023-11-21T21:30:39;7.50;;;7.00;;
41466;SDS011;72625;53.700;19.958;2023-11-21T21:35:45;6.10;;;5.70;;
41466;SDS011;72625;53.700;19.958;2023-11-21T21:40:49;6.50;;;6.10;;
41466;SDS011;72625;53.700;19.958;2023-11-21T21:45:55;7.70;;;7.20;;
41466;SDS011;72625;53.700;19.958;2023-11-21T21:50:59;9.50;;;8.80;;
41466;SDS011;72625;53.700;19.958;2023-11-21T21:56:03;8.70;;;8.10;;
41466;SDS011;72625;53.700;19.958;2023-11-21T22:01:07;10.20;;;9.40;;
41466;SDS011;72625;53.700;19.958;2023-11-21T22:06:11;8.40;;;7.80;;
41466;SDS011;72625;53.700;19.958;2023-11-21T22:11:15;12.90;;;12.00;;
41466;SDS011;72625;53.700;19.958;2023-11-21T22:16:19;11.50;;;10.50;;
41466;SDS011;72625;53.700;19.958;2023-11-21T22:21:24;10.00;;;9.30;;
41466;SDS011;72625;53.700;19.958;2023-11-21T22:26:29;8.50;;;7.90;;
41466;SDS011;72625;53.700;19.958;2023-11-21T22:31:41;8.50;;;7.90;;
41466;SDS011;72625;53.700;19.958;2023-11-21T22:36:45;8.30;;;7.70;;
41466;SDS011;72625;53.700;19.958;2023-11-21T22:41:49;7.20;;;6.70;;
41466;SDS011;72625;53.700;19.958;2023-11-21T22:46:58;7.50;;;7.00;;
41466;SDS011;72625;53.700;19.958;2023-11-21T22:52:04;8.10;;;7.50;;
41466;SDS011;72625;53.700;19.958;2023-11-21T22:57:08;9.00;;;8.10;;
41466;SDS011;72625;53.700;19.958;2023-11-21T23:02:12;7.90;;;7.40;;
41466;SDS011;72625;53.700;19.958;2023-11-21T23:07:16;9.00;;;8.30;;
41466;SDS011;72625;53.700;19.958;2023-11-21T23:12:20;8.80;;;8.00;;
41466;SDS011;72625;53.700;19.958;2023-11-21T23:17:23;8.30;;;7.70;;
41466;SDS011;72625;53.700;19.958;2023-11-21T23:22:27;8.70;;;8.20;;
41466;SDS011;72625;53.700;19.958;2023-11-21T23:27:31;9.00;;;8.40;;
41466;SDS011;72625;53.700;19.958;2023-11-21T23:32:35;9.30;;;8.60;;
41466;SDS011;72625;53.700;19.958;2023-11-21T23:37:39;8.50;;;7.90;;
41466;SDS011;72625;53.700;19.958;2023-11-21T23:47:46;8.50;;;8.00;;
41466;SDS011;72625;53.700;19.958;2023-11-21T23:52:51;8.60;;;8.00;;
41466;SDS011;72625;53.700;19.958;2023-11-21T23:57:55;8.30;;;7.80;;
